Decoded Metar for LEAS (ASTURIAS in SPAIN) (IATA:OVD) | Meteo·Mobile Aviation Weather
aviador You're here:

LEAS Decoded Metar

ASTURIAS in SPAIN
Report Time2019-02-20 00:30:00
UTC Time2019-02-20 00:49:02
Flight Rules vfr VFR
Wind240° at 04 kt
W.Decomp.*RWY 29: 2.7 kt HW 2.9 kt LCW
W.Rank240° ranks 1
Current wind is below 240° avg. (6.6)
Visibility9999 m
Phenomena:N/A
Clouds:N/A
Expected CloudBase > 400 ft AGL from Temp-Dew spread
CeilingNone
Temp06°C (ISA -8)
Dew Point05°C (93% RH)
AAT3.4°C
QNH1020 hPa
Density Alt-656 ft
Elevation440 ft
Report Wrong Elevation
Raw Report
LEAS 200030Z AUTO 24004KT 220V280 9999 NCD 06/05 Q1020=

Extra information for LEAS:More info

Metar Taf Metar & Taf Last 4 Metars F.Rules Stats Wind Profile Meteogram Temp Stats Airport Information Weather charts Add Link Nearby VenuesMetar ALERT Operation Metar Decoded Social comments